sensor_id;sensor_type;location;lat;lon;timestamp;pressure;altitude;pressure_sealevel;temperature;humidity
36222;BME280;22266;52.340;4.962;2023-04-05T00:00:48;102546.25;;;7.54;53.91
36222;BME280;22266;52.340;4.962;2023-04-05T00:03:15;102544.53;;;7.53;54.24
36222;BME280;22266;52.340;4.962;2023-04-05T00:05:44;102540.56;;;7.48;54.52
36222;BME280;22266;52.340;4.962;2023-04-05T00:08:11;102539.72;;;7.47;53.98
36222;BME280;22266;52.340;4.962;2023-04-05T00:10:43;102532.94;;;7.43;53.98
36222;BME280;22266;52.340;4.962;2023-04-05T00:13:10;102529.41;;;7.42;53.97
36222;BME280;22266;52.340;4.962;2023-04-05T00:15:37;102525.72;;;7.43;54.44
36222;BME280;22266;52.340;4.962;2023-04-05T00:18:04;102525.69;;;7.34;54.66
36222;BME280;22266;52.340;4.962;2023-04-05T00:20:30;102525.78;;;7.32;54.74
36222;BME280;22266;52.340;4.962;2023-04-05T00:22:56;102523.00;;;7.34;54.77
36222;BME280;22266;52.340;4.962;2023-04-05T00:25:23;102516.53;;;7.36;54.93
36222;BME280;22266;52.340;4.962;2023-04-05T00:27:50;102513.13;;;7.34;54.91
36222;BME280;22266;52.340;4.962;2023-04-05T00:30:16;102515.81;;;7.34;54.48
36222;BME280;22266;52.340;4.962;2023-04-05T00:32:47;102508.03;;;7.31;55.00
36222;BME280;22266;52.340;4.962;2023-04-05T00:35:15;102510.28;;;7.26;55.70
36222;BME280;22266;52.340;4.962;2023-04-05T00:37:42;102520.13;;;7.26;55.21
36222;BME280;22266;52.340;4.962;2023-04-05T00:40:09;102509.69;;;7.23;55.60
36222;BME280;22266;52.340;4.962;2023-04-05T00:42:36;102507.16;;;7.21;55.68
36222;BME280;22266;52.340;4.962;2023-04-05T00:45:02;102508.84;;;7.22;55.66
36222;BME280;22266;52.340;4.962;2023-04-05T00:47:29;102504.31;;;7.23;55.74
36222;BME280;22266;52.340;4.962;2023-04-05T00:49:56;102502.63;;;7.22;55.86
36222;BME280;22266;52.340;4.962;2023-04-05T00:52:22;102501.78;;;7.21;55.79
36222;BME280;22266;52.340;4.962;2023-04-05T00:54:50;102499.22;;;7.19;56.24
36222;BME280;22266;52.340;4.962;2023-04-05T00:57:17;102506.56;;;7.17;55.85
36222;BME280;22266;52.340;4.962;2023-04-05T00:59:44;102494.25;;;7.15;55.86
36222;BME280;22266;52.340;4.962;2023-04-05T01:02:17;102498.88;;;7.13;56.29
36222;BME280;22266;52.340;4.962;2023-04-05T01:04:50;102488.72;;;7.07;56.73
36222;BME280;22266;52.340;4.962;2023-04-05T01:07:24;102492.78;;;7.01;56.69
36222;BME280;22266;52.340;4.962;2023-04-05T01:10:00;102492.44;;;6.94;56.82
36222;BME280;22266;52.340;4.962;2023-04-05T01:12:32;102499.16;;;6.89;57.47
36222;BME280;22266;52.340;4.962;2023-04-05T01:14:59;102494.31;;;6.83;57.38
36222;BME280;22266;52.340;4.962;2023-04-05T01:17:30;102485.00;;;6.77;57.45
36222;BME280;22266;52.340;4.962;2023-04-05T01:20:07;102483.53;;;6.73;58.27
36222;BME280;22266;52.340;4.962;2023-04-05T01:22:46;102484.63;;;6.71;57.62
36222;BME280;22266;52.340;4.962;2023-04-05T01:31:22;102479.47;;;6.58;58.47
36222;BME280;22266;52.340;4.962;2023-04-05T01:34:01;102479.97;;;6.52;58.69
36222;BME280;22266;52.340;4.962;2023-04-05T01:36:43;102472.94;;;6.51;58.67
36222;BME280;22266;52.340;4.962;2023-04-05T01:39:12;102476.84;;;6.47;59.12
36222;BME280;22266;52.340;4.962;2023-04-05T01:41:39;102471.72;;;6.43;58.52
36222;BME280;22266;52.340;4.962;2023-04-05T01:44:06;102469.91;;;6.44;59.14
36222;BME280;22266;52.340;4.962;2023-04-05T01:46:32;102464.94;;;6.39;59.10
36222;BME280;22266;52.340;4.962;2023-04-05T01:48:59;102463.50;;;6.35;59.73
36222;BME280;22266;52.340;4.962;2023-04-05T01:51:25;102459.25;;;6.33;59.05
36222;BME280;22266;52.340;4.962;2023-04-05T01:53:53;102461.34;;;6.29;59.17
36222;BME280;22266;52.340;4.962;2023-04-05T01:56:19;102458.78;;;6.28;59.68
36222;BME280;22266;52.340;4.962;2023-04-05T01:58:46;102453.81;;;6.23;59.68
36222;BME280;22266;52.340;4.962;2023-04-05T02:01:12;102454.09;;;6.20;59.67
36222;BME280;22266;52.340;4.962;2023-04-05T02:03:39;102459.44;;;6.20;59.98
36222;BME280;22266;52.340;4.962;2023-04-05T02:06:05;102451.41;;;6.20;59.72
36222;BME280;22266;52.340;4.962;2023-04-05T02:08:32;102446.91;;;6.21;59.46
36222;BME280;22266;52.340;4.962;2023-04-05T02:10:58;102445.47;;;6.16;60.41
36222;BME280;22266;52.340;4.962;2023-04-05T02:13:25;102442.41;;;6.21;59.95
36222;BME280;22266;52.340;4.962;2023-04-05T02:15:51;102435.09;;;6.23;59.89
36222;BME280;22266;52.340;4.962;2023-04-05T02:18:18;102440.44;;;6.23;59.95
36222;BME280;22266;52.340;4.962;2023-04-05T02:20:48;102436.22;;;6.21;60.02
36222;BME280;22266;52.340;4.962;2023-04-05T02:23:18;102427.59;;;6.17;59.89
36222;BME280;22266;52.340;4.962;2023-04-05T02:25:45;102433.19;;;6.14;60.09
36222;BME280;22266;52.340;4.962;2023-04-05T02:28:11;102429.06;;;6.10;60.07
36222;BME280;22266;52.340;4.962;2023-04-05T02:30:38;102426.91;;;6.04;60.12
36222;BME280;22266;52.340;4.962;2023-04-05T02:33:05;102425.47;;;6.00;60.20
36222;BME280;22266;52.340;4.962;2023-04-05T02:35:34;102420.22;;;5.98;60.51
36222;BME280;22266;52.340;4.962;2023-04-05T02:38:02;102416.84;;;5.96;60.89
36222;BME280;22266;52.340;4.962;2023-04-05T02:40:33;102411.94;;;5.90;60.59
36222;BME280;22266;52.340;4.962;2023-04-05T02:42:59;102415.00;;;5.85;60.82
36222;BME280;22266;52.340;4.962;2023-04-05T02:45:26;102416.09;;;5.83;60.97
36222;BME280;22266;52.340;4.962;2023-04-05T02:47:55;102417.31;;;5.79;61.20
36222;BME280;22266;52.340;4.962;2023-04-05T02:50:21;102414.03;;;5.75;60.98
36222;BME280;22266;52.340;4.962;2023-04-05T02:52:49;102412.47;;;5.73;61.12
36222;BME280;22266;52.340;4.962;2023-04-05T02:55:17;102410.78;;;5.72;61.70
36222;BME280;22266;52.340;4.962;2023-04-05T02:57:43;102401.53;;;5.76;61.95
36222;BME280;22266;52.340;4.962;2023-04-05T03:00:23;102398.97;;;5.74;61.43
36222;BME280;22266;52.340;4.962;2023-04-05T03:02:51;102399.13;;;5.73;61.79
36222;BME280;22266;52.340;4.962;2023-04-05T03:05:18;102389.50;;;5.70;61.84
36222;BME280;22266;52.340;4.962;2023-04-05T03:07:49;102400.19;;;5.70;62.26
36222;BME280;22266;52.340;4.962;2023-04-05T03:10:20;102394.16;;;5.68;61.78
36222;BME280;22266;52.340;4.962;2023-04-05T03:12:56;102387.97;;;5.67;61.55
36222;BME280;22266;52.340;4.962;2023-04-05T03:15:24;102387.22;;;5.65;61.33
36222;BME280;22266;52.340;4.962;2023-04-05T03:17:54;102383.94;;;5.62;61.95
36222;BME280;22266;52.340;4.962;2023-04-05T03:20:23;102382.38;;;5.59;61.63
36222;BME280;22266;52.340;4.962;2023-04-05T03:22:53;102379.13;;;5.56;61.49
36222;BME280;22266;52.340;4.962;2023-04-05T03:25:20;102379.34;;;5.53;61.99
36222;BME280;22266;52.340;4.962;2023-04-05T03:27:47;102376.81;;;5.51;62.38
36222;BME280;22266;52.340;4.962;2023-04-05T03:30:16;102375.22;;;5.49;61.90
36222;BME280;22266;52.340;4.962;2023-04-05T03:32:49;102385.91;;;5.49;61.66
36222;BME280;22266;52.340;4.962;2023-04-05T03:35:32;102378.88;;;5.48;61.76
36222;BME280;22266;52.340;4.962;2023-04-05T03:37:59;102374.63;;;5.45;61.82
36222;BME280;22266;52.340;4.962;2023-04-05T03:40:26;102381.03;;;5.42;62.00
36222;BME280;22266;52.340;4.962;2023-04-05T03:42:53;102374.03;;;5.41;61.85
36222;BME280;22266;52.340;4.962;2023-04-05T03:45:19;102382.16;;;5.40;62.01
36222;BME280;22266;52.340;4.962;2023-04-05T03:47:50;102373.41;;;5.38;62.02
36222;BME280;22266;52.340;4.962;2023-04-05T03:50:16;102376.22;;;5.36;62.13
36222;BME280;22266;52.340;4.962;2023-04-05T03:52:43;102375.75;;;5.31;61.93
36222;BME280;22266;52.340;4.962;2023-04-05T03:55:11;102379.63;;;5.27;62.13
36222;BME280;22266;52.340;4.962;2023-04-05T03:57:39;102384.22;;;5.25;62.11
36222;BME280;22266;52.340;4.962;2023-04-05T04:00:20;102389.09;;;5.20;62.28
36222;BME280;22266;52.340;4.962;2023-04-05T04:03:08;102381.31;;;5.17;62.43
36222;BME280;22266;52.340;4.962;2023-04-05T04:05:39;102387.50;;;5.17;62.43
36222;BME280;22266;52.340;4.962;2023-04-05T04:08:07;102386.41;;;5.20;62.82
36222;BME280;22266;52.340;4.962;2023-04-05T04:10:35;102386.41;;;5.20;62.72
36222;BME280;22266;52.340;4.962;2023-04-05T04:13:09;102386.41;;;5.20;62.62
36222;BME280;22266;52.340;4.962;2023-04-05T04:15:36;102390.16;;;5.17;62.19
36222;BME280;22266;52.340;4.962;2023-04-05T04:18:15;102380.47;;;5.16;62.16
36222;BME280;22266;52.340;4.962;2023-04-05T04:21:03;102385.19;;;5.13;62.47
36222;BME280;22266;52.340;4.962;2023-04-05T04:23:53;102387.00;;;5.12;62.33
36222;BME280;22266;52.340;4.962;2023-04-05T04:26:40;102380.94;;;5.10;62.65
36222;BME280;22266;52.340;4.962;2023-04-05T04:29:27;102380.34;;;5.07;62.11
36222;BME280;22266;52.340;4.962;2023-04-05T04:32:18;102369.16;;;5.02;62.09
36222;BME280;22266;52.340;4.962;2023-04-05T04:35:25;102379.97;;;5.00;62.03
36222;BME280;22266;52.340;4.962;2023-04-05T04:38:03;102378.50;;;4.96;61.48
36222;BME280;22266;52.340;4.962;2023-04-05T04:40:41;102367.09;;;4.94;61.94
36222;BME280;22266;52.340;4.962;2023-04-05T04:43:25;102376.22;;;4.91;61.67
36222;BME280;22266;52.340;4.962;2023-04-05T04:46:10;102374.50;;;4.90;61.55
36222;BME280;22266;52.340;4.962;2023-04-05T04:49:03;102381.66;;;4.90;61.13
36222;BME280;22266;52.340;4.962;2023-04-05T04:51:31;102379.94;;;4.89;61.11
36222;BME280;22266;52.340;4.962;2023-04-05T04:53:58;102378.25;;;4.88;61.35
36222;BME280;22266;52.340;4.962;2023-04-05T04:56:24;102374.00;;;4.85;61.28
36222;BME280;22266;52.340;4.962;2023-04-05T04:58:55;102366.13;;;4.84;61.11
36222;BME280;22266;52.340;4.962;2023-04-05T05:01:22;102368.06;;;4.82;61.41
36222;BME280;22266;52.340;4.962;2023-04-05T05:03:50;102374.38;;;4.81;61.28
36222;BME280;22266;52.340;4.962;2023-04-05T05:06:21;102366.50;;;4.79;61.26
36222;BME280;22266;52.340;4.962;2023-04-05T05:08:47;102370.00;;;4.80;61.58
36222;BME280;22266;52.340;4.962;2023-04-05T05:11:14;102368.19;;;4.80;61.57
36222;BME280;22266;52.340;4.962;2023-04-05T05:13:40;102369.16;;;4.79;61.86
36222;BME280;22266;52.340;4.962;2023-04-05T05:16:10;102363.34;;;4.74;60.81
36222;BME280;22266;52.340;4.962;2023-04-05T05:18:36;102364.19;;;4.75;61.64
36222;BME280;22266;52.340;4.962;2023-04-05T05:21:05;102361.63;;;4.73;61.69
36222;BME280;22266;52.340;4.962;2023-04-05T05:23:31;102366.94;;;4.73;62.09
36222;BME280;22266;52.340;4.962;2023-04-05T05:25:58;102376.69;;;4.74;61.46
36222;BME280;22266;52.340;4.962;2023-04-05T05:28:26;102383.56;;;4.77;61.86
36222;BME280;22266;52.340;4.962;2023-04-05T05:30:52;102378.38;;;4.75;61.37
36222;BME280;22266;52.340;4.962;2023-04-05T05:33:19;102373.03;;;4.75;61.78
36222;BME280;22266;52.340;4.962;2023-04-05T05:35:49;102364.53;;;4.70;61.35
36222;BME280;22266;52.340;4.962;2023-04-05T05:38:17;102368.78;;;4.72;61.67
36222;BME280;22266;52.340;4.962;2023-04-05T05:40:43;102375.69;;;4.75;61.60
36222;BME280;22266;52.340;4.962;2023-04-05T05:43:10;102370.13;;;4.78;61.81
36222;BME280;22266;52.340;4.962;2023-04-05T05:45:36;102367.81;;;4.85;62.01
36222;BME280;22266;52.340;4.962;2023-04-05T05:48:03;102370.63;;;4.94;61.66
36222;BME280;22266;52.340;4.962;2023-04-05T05:50:30;102374.13;;;5.06;61.15
36222;BME280;22266;52.340;4.962;2023-04-05T05:52:58;102369.41;;;5.10;61.24
36222;BME280;22266;52.340;4.962;2023-04-05T05:55:27;102373.53;;;5.14;60.33
36222;BME280;22266;52.340;4.962;2023-04-05T05:57:53;102380.22;;;5.19;60.71
36222;BME280;22266;52.340;4.962;2023-04-05T06:00:20;102379.72;;;5.26;60.40
36222;BME280;22266;52.340;4.962;2023-04-05T06:02:46;102385.44;;;5.32;60.54
36222;BME280;22266;52.340;4.962;2023-04-05T06:05:13;102381.56;;;5.36;59.88
36222;BME280;22266;52.340;4.962;2023-04-05T06:07:39;102384.22;;;5.48;59.53
36222;BME280;22266;52.340;4.962;2023-04-05T06:10:07;102386.25;;;5.66;59.44
36222;BME280;22266;52.340;4.962;2023-04-05T06:12:34;102380.13;;;5.87;58.34
36222;BME280;22266;52.340;4.962;2023-04-05T06:15:00;102378.66;;;6.05;57.74
36222;BME280;22266;52.340;4.962;2023-04-05T06:17:27;102384.06;;;6.15;56.95
36222;BME280;22266;52.340;4.962;2023-04-05T06:19:54;102380.38;;;6.27;56.29
36222;BME280;22266;52.340;4.962;2023-04-05T06:22:20;102379.88;;;6.33;56.30
36222;BME280;22266;52.340;4.962;2023-04-05T06:24:48;102381.41;;;6.36;56.15
36222;BME280;22266;52.340;4.962;2023-04-05T06:27:15;102381.56;;;6.34;55.97
36222;BME280;22266;52.340;4.962;2023-04-05T06:29:41;102375.50;;;6.32;55.47
36222;BME280;22266;52.340;4.962;2023-04-05T06:32:08;102374.06;;;6.28;55.63
36222;BME280;22266;52.340;4.962;2023-04-05T06:34:34;102373.88;;;6.20;56.00
36222;BME280;22266;52.340;4.962;2023-04-05T06:37:00;102368.31;;;6.12;55.92
36222;BME280;22266;52.340;4.962;2023-04-05T06:39:28;102375.34;;;6.13;56.13
36222;BME280;22266;52.340;4.962;2023-04-05T06:41:54;102376.34;;;6.12;56.30
36222;BME280;22266;52.340;4.962;2023-04-05T06:44:25;102374.34;;;6.14;55.76
36222;BME280;22266;52.340;4.962;2023-04-05T06:46:52;102372.03;;;6.21;55.36
36222;BME280;22266;52.340;4.962;2023-04-05T06:49:18;102379.66;;;6.25;55.64
36222;BME280;22266;52.340;4.962;2023-04-05T06:51:45;102375.03;;;6.27;55.46
36222;BME280;22266;52.340;4.962;2023-04-05T06:54:11;102369.78;;;6.37;55.15
36222;BME280;22266;52.340;4.962;2023-04-05T06:56:38;102365.56;;;6.44;55.48
36222;BME280;22266;52.340;4.962;2023-04-05T06:59:04;102366.13;;;6.59;55.58
36222;BME280;22266;52.340;4.962;2023-04-05T07:01:31;102356.06;;;6.72;55.38
36222;BME280;22266;52.340;4.962;2023-04-05T07:03:57;102368.25;;;6.86;54.67
36222;BME280;22266;52.340;4.962;2023-04-05T07:06:24;102359.41;;;6.95;54.45
36222;BME280;22266;52.340;4.962;2023-04-05T07:08:50;102366.25;;;7.09;54.57
36222;BME280;22266;52.340;4.962;2023-04-05T07:11:17;102363.38;;;7.22;53.67
36222;BME280;22266;52.340;4.962;2023-04-05T07:13:44;102364.38;;;7.30;53.34
36222;BME280;22266;52.340;4.962;2023-04-05T07:16:11;102364.28;;;7.41;53.03
36222;BME280;22266;52.340;4.962;2023-04-05T07:18:37;102368.50;;;7.44;52.61
36222;BME280;22266;52.340;4.962;2023-04-05T07:21:04;102364.44;;;7.50;52.23
36222;BME280;22266;52.340;4.962;2023-04-05T07:23:30;102366.16;;;7.60;51.82
36222;BME280;22266;52.340;4.962;2023-04-05T07:26:01;102366.47;;;7.67;51.72
36222;BME280;22266;52.340;4.962;2023-04-05T07:28:31;102363.06;;;7.65;51.02
36222;BME280;22266;52.340;4.962;2023-04-05T07:30:58;102367.44;;;7.66;51.21
36222;BME280;22266;52.340;4.962;2023-04-05T07:33:24;102358.84;;;7.72;51.17
36222;BME280;22266;52.340;4.962;2023-04-05T07:35:54;102364.78;;;7.76;51.13
36222;BME280;22266;52.340;4.962;2023-04-05T07:38:21;102366.88;;;7.82;50.48
36222;BME280;22266;52.340;4.962;2023-04-05T07:40:49;102361.00;;;7.88;50.23
36222;BME280;22266;52.340;4.962;2023-04-05T07:43:17;102363.81;;;7.96;50.76
36222;BME280;22266;52.340;4.962;2023-04-05T07:45:44;102360.03;;;7.99;50.04
36222;BME280;22266;52.340;4.962;2023-04-05T07:48:11;102358.59;;;8.04;49.33
36222;BME280;22266;52.340;4.962;2023-04-05T07:50:37;102359.47;;;8.14;49.29
36222;BME280;22266;52.340;4.962;2023-04-05T07:53:06;102357.63;;;8.25;49.01
36222;BME280;22266;52.340;4.962;2023-04-05T07:55:36;102361.00;;;8.36;48.40
36222;BME280;22266;52.340;4.962;2023-04-05T07:58:03;102359.31;;;8.45;47.54
36222;BME280;22266;52.340;4.962;2023-04-05T08:00:29;102352.13;;;8.46;48.37
36222;BME280;22266;52.340;4.962;2023-04-05T08:02:56;102350.16;;;8.48;47.12
36222;BME280;22266;52.340;4.962;2023-04-05T08:05:27;102350.28;;;8.56;47.63
36222;BME280;22266;52.340;4.962;2023-04-05T08:07:53;102351.94;;;8.66;46.78
36222;BME280;22266;52.340;4.962;2023-04-05T08:10:21;102350.78;;;8.79;47.58
36222;BME280;22266;52.340;4.962;2023-04-05T08:12:47;102345.94;;;8.92;46.71
36222;BME280;22266;52.340;4.962;2023-04-05T08:15:13;102339.53;;;9.03;45.27
36222;BME280;22266;52.340;4.962;2023-04-05T08:17:40;102346.41;;;9.15;45.41
36222;BME280;22266;52.340;4.962;2023-04-05T08:20:07;102349.53;;;9.20;44.00
36222;BME280;22266;52.340;4.962;2023-04-05T08:22:33;102353.16;;;9.29;43.36
36222;BME280;22266;52.340;4.962;2023-04-05T08:25:00;102347.16;;;9.35;42.66
36222;BME280;22266;52.340;4.962;2023-04-05T08:27:26;102345.78;;;9.31;42.90
36222;BME280;22266;52.340;4.962;2023-04-05T08:29:52;102343.34;;;9.37;43.36
36222;BME280;22266;52.340;4.962;2023-04-05T08:32:19;102336.31;;;9.54;43.34
36222;BME280;22266;52.340;4.962;2023-04-05T08:34:45;102334.94;;;9.68;43.03
36222;BME280;22266;52.340;4.962;2023-04-05T08:37:12;102333.50;;;9.74;43.09
36222;BME280;22266;52.340;4.962;2023-04-05T08:39:38;102325.06;;;9.86;42.10
36222;BME280;22266;52.340;4.962;2023-04-05T08:42:14;102327.22;;;10.01;40.91
36222;BME280;22266;52.340;4.962;2023-04-05T08:44:43;102325.44;;;10.09;41.26
36222;BME280;22266;52.340;4.962;2023-04-05T08:47:11;102337.59;;;10.13;40.67
36222;BME280;22266;52.340;4.962;2023-04-05T08:49:44;102323.50;;;10.20;40.74
36222;BME280;22266;52.340;4.962;2023-04-05T08:52:10;102324.88;;;10.24;40.21
36222;BME280;22266;52.340;4.962;2023-04-05T08:54:37;102323.03;;;10.24;38.33
36222;BME280;22266;52.340;4.962;2023-04-05T08:57:04;102322.53;;;10.38;38.05
36222;BME280;22266;52.340;4.962;2023-04-05T08:59:32;102317.19;;;10.47;38.08
36222;BME280;22266;52.340;4.962;2023-04-05T09:02:07;102326.00;;;10.57;38.28
36222;BME280;22266;52.340;4.962;2023-04-05T09:04:42;102324.31;;;10.56;38.59
36222;BME280;22266;52.340;4.962;2023-04-05T09:07:12;102321.94;;;10.53;37.96
36222;BME280;22266;52.340;4.962;2023-04-05T09:09:43;102321.84;;;10.62;37.39
36222;BME280;22266;52.340;4.962;2023-04-05T09:12:12;102314.53;;;10.81;36.72
36222;BME280;22266;52.340;4.962;2023-04-05T09:14:40;102324.88;;;10.94;38.55
36222;BME280;22266;52.340;4.962;2023-04-05T09:17:07;102317.72;;;11.02;38.33
36222;BME280;22266;52.340;4.962;2023-04-05T09:19:33;102313.31;;;11.01;37.70
36222;BME280;22266;52.340;4.962;2023-04-05T09:22:03;102317.25;;;11.15;42.79
36222;BME280;22266;52.340;4.962;2023-04-05T09:24:40;102316.19;;;11.50;40.78
36222;BME280;22266;52.340;4.962;2023-04-05T09:27:08;102322.28;;;11.60;38.11
36222;BME280;22266;52.340;4.962;2023-04-05T09:29:35;102313.19;;;11.61;36.96
36222;BME280;22266;52.340;4.962;2023-04-05T09:32:05;102309.31;;;11.64;36.59
36222;BME280;22266;52.340;4.962;2023-04-05T09:34:33;102308.81;;;11.69;36.78
36222;BME280;22266;52.340;4.962;2023-04-05T09:37:15;102306.31;;;11.75;35.81
36222;BME280;22266;52.340;4.962;2023-04-05T09:39:42;102307.66;;;11.71;35.12
36222;BME280;22266;52.340;4.962;2023-04-05T09:44:59;102309.69;;;11.77;35.70
36222;BME280;22266;52.340;4.962;2023-04-05T09:47:31;102312.03;;;11.72;38.44
36222;BME280;22266;52.340;4.962;2023-04-05T09:50:23;102309.16;;;11.74;35.32
36222;BME280;22266;52.340;4.962;2023-04-05T09:53:04;102306.13;;;11.77;35.17
36222;BME280;22266;52.340;4.962;2023-04-05T09:55:32;102311.06;;;11.90;35.54
36222;BME280;22266;52.340;4.962;2023-04-05T09:58:00;102310.44;;;12.04;35.99
36222;BME280;22266;52.340;4.962;2023-04-05T10:00:28;102308.72;;;12.11;35.34
36222;BME280;22266;52.340;4.962;2023-04-05T10:02:55;102300.16;;;12.16;34.90
36222;BME280;22266;52.340;4.962;2023-04-05T10:05:24;102299.13;;;12.25;35.26
36222;BME280;22266;52.340;4.962;2023-04-05T10:07:50;102294.56;;;12.25;34.86
36222;BME280;22266;52.340;4.962;2023-04-05T10:10:18;102288.47;;;12.31;34.39
36222;BME280;22266;52.340;4.962;2023-04-05T10:12:45;102285.28;;;12.28;34.38
36222;BME280;22266;52.340;4.962;2023-04-05T10:15:13;102285.97;;;12.13;33.96
36222;BME280;22266;52.340;4.962;2023-04-05T10:18:03;102288.00;;;12.11;33.88
36222;BME280;22266;52.340;4.962;2023-04-05T10:20:32;102281.72;;;12.03;33.86
36222;BME280;22266;52.340;4.962;2023-04-05T10:23:07;102285.13;;;11.97;34.36
36222;BME280;22266;52.340;4.962;2023-04-05T10:28:31;102283.59;;;11.94;33.63
36222;BME280;22266;52.340;4.962;2023-04-05T10:31:14;102275.34;;;11.96;34.19
36222;BME280;22266;52.340;4.962;2023-04-05T10:36:56;102277.03;;;11.97;34.50
36222;BME280;22266;52.340;4.962;2023-04-05T10:39:49;102275.47;;;11.86;33.66
36222;BME280;22266;52.340;4.962;2023-04-05T10:42:20;102270.94;;;11.86;34.37
36222;BME280;22266;52.340;4.962;2023-04-05T10:44:51;102275.50;;;11.94;34.33
36222;BME280;22266;52.340;4.962;2023-04-05T10:47:22;102273.81;;;12.01;34.47
36222;BME280;22266;52.340;4.962;2023-04-05T10:49:53;102262.00;;;12.19;34.59
36222;BME280;22266;52.340;4.962;2023-04-05T10:52:21;102267.38;;;12.35;34.31
36222;BME280;22266;52.340;4.962;2023-04-05T10:54:48;102258.44;;;12.26;33.50
36222;BME280;22266;52.340;4.962;2023-04-05T10:57:18;102255.41;;;12.29;34.20
36222;BME280;22266;52.340;4.962;2023-04-05T10:59:45;102235.13;;;12.42;33.42
36222;BME280;22266;52.340;4.962;2023-04-05T11:02:15;102245.25;;;12.48;32.69
36222;BME280;22266;52.340;4.962;2023-04-05T11:04:42;102246.78;;;12.34;33.57
36222;BME280;22266;52.340;4.962;2023-04-05T11:07:12;102242.72;;;12.46;34.02
36222;BME280;22266;52.340;4.962;2023-04-05T11:12:19;102248.56;;;12.66;32.90
36222;BME280;22266;52.340;4.962;2023-04-05T11:14:45;102252.09;;;12.75;32.23
36222;BME280;22266;52.340;4.962;2023-04-05T11:17:25;102248.19;;;12.77;31.68
36222;BME280;22266;52.340;4.962;2023-04-05T11:20:03;102236.06;;;12.73;31.71
36222;BME280;22266;52.340;4.962;2023-04-05T11:22:30;102238.25;;;12.70;31.68
36222;BME280;22266;52.340;4.962;2023-04-05T11:24:58;102239.78;;;12.72;31.99
36222;BME280;22266;52.340;4.962;2023-04-05T11:27:31;102236.16;;;12.88;31.69
36222;BME280;22266;52.340;4.962;2023-04-05T11:29:59;102236.97;;;12.97;31.57
36222;BME280;22266;52.340;4.962;2023-04-05T11:32:40;102229.13;;;13.10;31.39
36222;BME280;22266;52.340;4.962;2023-04-05T11:35:13;102235.97;;;12.98;31.25
36222;BME280;22266;52.340;4.962;2023-04-05T11:38:04;102235.91;;;13.06;30.95
36222;BME280;22266;52.340;4.962;2023-04-05T11:40:34;102231.66;;;13.11;30.61
36222;BME280;22266;52.340;4.962;2023-04-05T11:43:09;102226.13;;;13.05;29.78
36222;BME280;22266;52.340;4.962;2023-04-05T11:45:40;102228.31;;;13.09;30.68
36222;BME280;22266;52.340;4.962;2023-04-05T11:48:11;102218.63;;;13.15;30.66
36222;BME280;22266;52.340;4.962;2023-04-05T11:50:39;102202.94;;;13.10;30.92
36222;BME280;22266;52.340;4.962;2023-04-05T11:53:12;102209.53;;;13.08;31.02
36222;BME280;22266;52.340;4.962;2023-04-05T11:55:49;102203.81;;;13.03;31.46
36222;BME280;22266;52.340;4.962;2023-04-05T11:58:21;102205.16;;;13.07;32.70
36222;BME280;22266;52.340;4.962;2023-04-05T12:01:05;102201.63;;;13.06;32.50
36222;BME280;22266;52.340;4.962;2023-04-05T12:03:35;102197.34;;;13.12;33.08
36222;BME280;22266;52.340;4.962;2023-04-05T12:06:04;102199.16;;;13.20;32.64
36222;BME280;22266;52.340;4.962;2023-04-05T12:08:45;102197.28;;;13.28;32.48
36222;BME280;22266;52.340;4.962;2023-04-05T12:11:28;102196.34;;;13.44;32.88
36222;BME280;22266;52.340;4.962;2023-04-05T12:14:00;102182.38;;;13.55;32.85
36222;BME280;22266;52.340;4.962;2023-04-05T12:16:28;102196.28;;;13.52;32.42
36222;BME280;22266;52.340;4.962;2023-04-05T12:18:56;102182.75;;;13.29;32.38
36222;BME280;22266;52.340;4.962;2023-04-05T12:21:24;102186.31;;;13.22;32.07
36222;BME280;22266;52.340;4.962;2023-04-05T12:23:52;102177.28;;;13.06;32.94
36222;BME280;22266;52.340;4.962;2023-04-05T12:26:19;102180.13;;;13.13;33.23
36222;BME280;22266;52.340;4.962;2023-04-05T12:28:52;102174.25;;;13.32;33.21
36222;BME280;22266;52.340;4.962;2023-04-05T12:34:04;102174.09;;;13.57;33.06
36222;BME280;22266;52.340;4.962;2023-04-05T12:36:31;102173.00;;;13.66;32.53
36222;BME280;22266;52.340;4.962;2023-04-05T12:38:58;102170.53;;;13.79;32.58
36222;BME280;22266;52.340;4.962;2023-04-05T12:41:29;102167.53;;;13.89;32.23
36222;BME280;22266;52.340;4.962;2023-04-05T12:43:56;102161.31;;;14.03;32.46
36222;BME280;22266;52.340;4.962;2023-04-05T12:46:40;102166.63;;;13.97;31.44
36222;BME280;22266;52.340;4.962;2023-04-05T12:49:11;102165.63;;;13.98;31.18
36222;BME280;22266;52.340;4.962;2023-04-05T12:51:42;102157.59;;;14.04;31.38
36222;BME280;22266;52.340;4.962;2023-04-05T12:54:27;102160.22;;;14.13;30.73
36222;BME280;22266;52.340;4.962;2023-04-05T12:56:54;102163.13;;;14.11;29.72
36222;BME280;22266;52.340;4.962;2023-04-05T12:59:22;102156.66;;;14.12;30.37
36222;BME280;22266;52.340;4.962;2023-04-05T13:01:48;102150.69;;;14.02;30.15
36222;BME280;22266;52.340;4.962;2023-04-05T13:04:15;102146.38;;;13.93;30.48
36222;BME280;22266;52.340;4.962;2023-04-05T13:06:43;102143.38;;;13.88;31.17
36222;BME280;22266;52.340;4.962;2023-04-05T13:09:12;102147.59;;;14.05;31.13
36222;BME280;22266;52.340;4.962;2023-04-05T13:11:38;102148.72;;;14.25;31.56
36222;BME280;22266;52.340;4.962;2023-04-05T13:14:05;102141.53;;;14.32;31.13
36222;BME280;22266;52.340;4.962;2023-04-05T13:16:31;102134.72;;;14.37;30.34
36222;BME280;22266;52.340;4.962;2023-04-05T13:18:58;102130.91;;;14.31;30.17
36222;BME280;22266;52.340;4.962;2023-04-05T13:21:24;102127.72;;;14.27;29.92
36222;BME280;22266;52.340;4.962;2023-04-05T13:23:51;102122.38;;;14.34;29.95
36222;BME280;22266;52.340;4.962;2023-04-05T13:26:17;102129.31;;;14.37;29.97
36222;BME280;22266;52.340;4.962;2023-04-05T13:28:44;102122.00;;;14.37;30.01
36222;BME280;22266;52.340;4.962;2023-04-05T13:31:10;102123.88;;;14.37;30.36